Time;durP1;ratioP1;P1;durP2;ratioP2;P2;SDS_P1;SDS_P2;PMS_P1;PMS_P2;Temp;Humidity;BMP_temperature;BMP_pressure;BME280_temperature;BME280_humidity;BME280_pressure;Samples;Min_cycle;Max_cycle;Signal;HPM_P1;HPM_P2
2022/05/17 00:08:35;;;;;;;4.68;2.13;;;;;;;12.21;60.64;100863.92;713410;1173;115608;-70
2022/05/17 00:23:39;;;;;;;5.90;2.40;;;;;;;12.06;60.80;100850.27;713044;1174;115097;-70
2022/05/17 00:38:41;;;;;;;4.60;2.03;;;;;;;11.86;60.61;100854.57;713191;1174;114025;-70
2022/05/17 00:53:45;;;;;;;4.43;1.70;;;;;;;11.77;60.69;100858.80;712973;1174;114508;-70
2022/05/17 01:08:47;;;;;;;4.00;1.50;;;;;;;11.71;60.37;100862.78;713151;1173;115137;-70
2022/05/17 01:23:49;;;;;;;2.50;1.58;;;;;;;11.59;60.53;100861.19;713570;1202;23320;-72
2022/05/17 01:38:52;;;;;;;2.87;1.43;;;;;;;11.44;60.13;100856.25;713866;1203;23256;-73
2022/05/17 01:53:54;;;;;;;4.95;1.90;;;;;;;11.32;60.64;100883.50;713006;1203;23124;-73
2022/05/17 02:08:56;;;;;;;2.85;1.50;;;;;;;11.09;60.44;100888.84;713260;1200;23163;-71
2022/05/17 02:23:59;;;;;;;2.30;0.93;;;;;;;10.80;60.52;100878.05;713143;1202;23122;-72
2022/05/17 02:39:01;;;;;;;0.90;0.80;;;;;;;10.64;60.28;100873.20;713402;1202;23115;-71
2022/05/17 02:54:05;;;;;;;0.98;0.88;;;;;;;10.44;59.83;100886.08;713174;1203;25961;-70
2022/05/17 03:09:09;;;;;;;2.15;0.80;;;;;;;10.35;58.40;100899.91;713143;1203;23118;-70
2022/05/17 03:24:11;;;;;;;1.43;0.78;;;;;;;10.31;58.81;100909.77;713149;1202;25999;-72
2022/05/17 03:39:34;;;;;;;1.18;0.93;;;;;;;10.25;58.80;100933.00;713253;1202;23205;-72
2022/05/17 03:54:37;;;;;;;1.17;0.60;;;;;;;10.58;58.24;100942.70;713329;1206;23128;-72
2022/05/17 04:09:39;;;;;;;1.50;1.10;;;;;;;10.79;59.22;100929.69;713185;1200;23151;-72
2022/05/17 04:24:42;;;;;;;2.57;1.00;;;;;;;11.15;59.42;100940.02;713541;1200;26070;-73
2022/05/17 04:39:44;;;;;;;6.80;1.60;;;;;;;11.55;60.02;100944.69;713810;1202;26153;-71
2022/05/17 04:54:46;;;;;;;5.48;1.75;;;;;;;11.96;60.38;100965.92;713269;1203;24735;-73
2022/05/17 05:09:48;;;;;;;6.73;2.15;;;;;;;12.61;60.12;100960.47;713358;1202;27204;-72
2022/05/17 05:24:51;;;;;;;3.97;1.50;;;;;;;13.51;57.74;100958.77;713169;1200;26175;-73
2022/05/17 05:39:53;;;;;;;2.43;1.00;;;;;;;13.98;53.76;100958.06;713104;1200;24594;-75
2022/05/17 05:54:55;;;;;;;14.43;4.05;;;;;;;13.83;50.92;100956.83;713249;1202;23113;-79
2022/05/17 06:09:58;;;;;;;2.10;1.00;;;;;;;14.08;50.21;100965.95;713290;1203;23574;-78
2022/05/17 06:25:00;;;;;;;16.20;4.83;;;;;;;14.40;49.48;100960.33;713862;1203;23131;-75
2022/05/17 07:27:27;;;;;;;2.50;0.73;;;;;;;17.17;44.66;100977.23;739436;1153;114869;-79
2022/05/17 07:42:31;;;;;;;1.60;1.30;;;;;;;18.01;43.67;100982.48;740262;1155;114676;-80
2022/05/17 07:57:34;;;;;;;4.90;3.53;;;;;;;19.51;43.06;100995.09;741414;1153;114668;-79
2022/05/17 08:12:36;;;;;;;1.35;1.10;;;;;;;20.09;42.31;101006.95;740975;1153;114556;-79
2022/05/17 08:27:39;;;;;;;0.73;0.50;;;;;;;20.41;42.21;101010.30;739579;1155;113705;-77
2022/05/17 08:42:53;;;;;;;2.38;0.50;;;;;;;20.08;41.21;101015.13;739761;1155;114101;-76
2022/05/17 08:58:28;;;;;;;1.30;0.67;;;;;;;21.24;40.92;101025.35;740545;1154;114544;-77
2022/05/17 09:13:52;;;;;;;1.25;0.80;;;;;;;22.00;40.69;101019.56;739647;1153;114034;-78
2022/05/17 09:29:25;;;;;;;1.18;0.50;;;;;;;22.73;40.53;101029.12;739096;1153;115038;-73
2022/05/17 09:44:30;;;;;;;0.93;0.67;;;;;;;23.46;38.24;101009.03;739500;1153;114362;-74
2022/05/17 09:59:33;;;;;;;1.00;0.55;;;;;;;24.18;38.72;101018.16;739879;1155;114402;-75
2022/05/17 10:14:53;;;;;;;3.30;0.50;;;;;;;24.36;38.41;101024.72;741303;1154;115048;-76
2022/05/17 10:30:31;;;;;;;2.63;1.60;;;;;;;24.18;37.41;101012.80;740103;1153;113985;-77
2022/05/17 10:45:35;;;;;;;1.40;0.60;;;;;;;24.91;38.35;101002.93;739361;1152;114797;-76
2022/05/17 11:00:47;;;;;;;2.18;0.95;;;;;;;25.80;38.32;100994.14;739579;1155;115086;-73
2022/05/17 11:15:55;;;;;;;2.38;0.60;;;;;;;25.65;37.67;100987.23;739927;1154;115420;-71
2022/05/17 11:31:04;;;;;;;;;;;;;;;26.57;36.17;100989.27;740608;1155;115496;-70
2022/05/17 11:46:29;;;;;;;1.93;0.70;;;;;;;24.87;37.65;100996.34;740736;1155;101562;-74
2022/05/17 12:01:31;;;;;;;3.40;0.90;;;;;;;24.59;38.50;100997.45;740028;1155;115460;-72
2022/05/17 12:16:33;;;;;;;1.35;0.50;;;;;;;25.39;38.29;100994.45;738996;1153;115068;-72
2022/05/17 12:31:41;;;;;;;1.40;0.70;;;;;;;26.48;36.79;100989.80;739591;1153;114759;-73
2022/05/17 12:46:46;;;;;;;1.17;0.53;;;;;;;26.13;35.92;100983.14;740944;1155;115163;-72
2022/05/17 13:01:57;;;;;;;4.35;0.83;;;;;;;26.23;35.51;100985.30;740033;1153;115420;-72
2022/05/17 13:17:18;;;;;;;1.80;0.95;;;;;;;26.63;35.78;100995.61;740403;1155;115542;-72
2022/05/17 13:32:24;;;;;;;6.78;1.13;;;;;;;26.05;35.05;100997.69;740108;1155;114775;-74
2022/05/17 13:47:33;;;;;;;3.05;0.73;;;;;;;25.25;34.74;101004.40;739695;1153;114513;-75
2022/05/17 14:03:19;;;;;;;2.70;0.90;;;;;;;24.92;35.06;101008.08;739295;1153;113966;-74
2022/05/17 14:18:27;;;;;;;4.70;0.80;;;;;;;24.67;34.99;101013.33;739337;1155;115506;-73
2022/05/17 14:33:29;;;;;;;1.33;0.63;;;;;;;24.89;34.75;101024.61;739492;1153;115477;-72
2022/05/17 14:48:32;;;;;;;1.43;0.70;;;;;;;23.75;34.81;101038.13;740120;1155;115413;-73
2022/05/17 15:03:45;;;;;;;2.68;1.10;;;;;;;23.31;35.36;101047.49;739591;1153;115871;-71
2022/05/17 15:18:52;;;;;;;2.63;1.25;;;;;;;22.68;34.96;101058.30;740441;1154;114238;-72
2022/05/17 15:33:54;;;;;;;4.28;0.70;;;;;;;22.31;35.79;101068.30;739324;1153;115348;-71
2022/05/17 16:19:46;;;;;;;3.60;0.90;;;;;;;20.65;37.23;101085.67;739814;1155;115535;-74
2022/05/17 16:34:50;;;;;;;1.77;1.07;;;;;;;19.81;37.78;101083.90;740241;1153;115324;-74
2022/05/17 16:49:52;;;;;;;2.68;1.28;;;;;;;19.35;38.37;101097.11;739146;1153;115319;-80
2022/05/17 17:04:55;;;;;;;8.08;3.30;;;;;;;18.81;39.24;101103.07;740392;1153;114028;-83
2022/05/17 17:38:09;;;;;;;6.47;2.87;;;;;;;17.21;40.05;101127.88;741382;1152;23120;-83
2022/05/17 17:53:12;;;;;;;7.97;3.87;;;;;;;16.58;40.90;101148.30;740476;1152;115149;-81
2022/05/17 18:08:17;;;;;;;12.37;5.03;;;;;;;15.72;40.88;101157.55;739966;1152;113727;-81
2022/05/17 18:23:21;;;;;;;8.28;4.33;;;;;;;15.07;42.81;101198.02;739848;1152;114690;-81
2022/05/17 18:38:25;;;;;;;52.88;29.00;;;;;;;14.52;43.62;101217.06;740054;1152;115022;-83
2022/05/17 18:53:27;;;;;;;15.08;8.00;;;;;;;14.01;44.21;101242.67;739367;1152;115420;-81
2022/05/17 19:23:51;;;;;;;26.48;9.15;;;;;;;12.94;46.31;101283.25;739621;1152;114714;-83
2022/05/17 19:54:15;;;;;;;150.73;52.60;;;;;;;12.11;47.10;101316.23;739573;1152;114414;-76
2022/05/17 20:09:18;;;;;;;6.65;3.63;;;;;;;11.80;47.13;101323.84;740312;1152;114453;-77
2022/05/17 20:24:28;;;;;;;6.70;4.35;;;;;;;11.47;47.47;101356.98;740588;1152;115665;-82
2022/05/17 20:39:30;;;;;;;12.53;5.05;;;;;;;11.18;48.18;101356.50;741569;1152;114849;-79
2022/05/17 20:54:32;;;;;;;8.83;2.93;;;;;;;10.86;47.65;101365.80;739218;1152;114068;-82
2022/05/17 21:09:35;;;;;;;7.88;3.28;;;;;;;10.58;48.86;101374.80;738994;1152;113915;-81
2022/05/17 21:24:38;;;;;;;11.33;3.15;;;;;;;10.20;49.09;101380.91;739348;1152;114421;-81
2022/05/17 21:39:46;;;;;;;19.60;5.80;;;;;;;9.98;50.56;101387.63;739467;1152;115166;-82
2022/05/17 21:54:49;;;;;;;;;;;;;;;9.78;51.60;101410.78;739532;1152;114284;-75
2022/05/17 22:10:05;;;;;;;48.98;13.65;;;;;;;9.03;51.29;101426.13;739538;1152;100855;-75
2022/05/17 22:25:08;;;;;;;28.55;10.43;;;;;;;8.47;52.76;101433.05;739852;1152;113971;-75
2022/05/17 22:40:10;;;;;;;26.00;9.83;;;;;;;8.22;54.17;101448.48;739255;1152;115557;-74
2022/05/17 22:55:13;;;;;;;38.20;11.48;;;;;;;7.66;54.97;101447.31;739809;1152;115208;-77
2022/05/17 23:10:16;;;;;;;6.10;2.83;;;;;;;7.29;55.72;101454.63;739209;1152;114708;-75
2022/05/17 23:40:45;;;;;;;84.80;17.13;;;;;;;6.68;57.77;101465.77;738906;1152;115154;-75
2022/05/17 23:55:48;;;;;;;16.20;4.15;;;;;;;6.69;57.94;101470.06;739681;1152;114026;-76
